sensor_id;sensor_type;location;lat;lon;timestamp;P1;durP1;ratioP1;P2;durP2;ratioP2
23001;SDS011;11667;51.706;4.856;2022-08-11T00:03:54;2.47;;;1.50;;
23001;SDS011;11667;51.706;4.856;2022-08-11T00:06:36;14.33;;;1.50;;
23001;SDS011;11667;51.706;4.856;2022-08-11T00:09:03;2.47;;;1.42;;
23001;SDS011;11667;51.706;4.856;2022-08-11T00:11:41;3.10;;;1.52;;
23001;SDS011;11667;51.706;4.856;2022-08-11T00:14:14;1.85;;;1.30;;
23001;SDS011;11667;51.706;4.856;2022-08-11T00:19:43;1.77;;;1.20;;
23001;SDS011;11667;51.706;4.856;2022-08-11T00:22:20;2.55;;;1.55;;
23001;SDS011;11667;51.706;4.856;2022-08-11T00:24:50;2.37;;;1.47;;
23001;SDS011;11667;51.706;4.856;2022-08-11T00:27:38;1.70;;;1.20;;
23001;SDS011;11667;51.706;4.856;2022-08-11T00:30:03;3.20;;;1.65;;
23001;SDS011;11667;51.706;4.856;2022-08-11T00:32:34;3.45;;;1.65;;
23001;SDS011;11667;51.706;4.856;2022-08-11T00:35:14;2.27;;;1.52;;
23001;SDS011;11667;51.706;4.856;2022-08-11T00:37:49;3.37;;;1.70;;
23001;SDS011;11667;51.706;4.856;2022-08-11T00:40:29;2.00;;;1.45;;
23001;SDS011;11667;51.706;4.856;2022-08-11T00:43:11;3.67;;;1.67;;
23001;SDS011;11667;51.706;4.856;2022-08-11T00:48:39;3.02;;;1.40;;
23001;SDS011;11667;51.706;4.856;2022-08-11T00:51:25;2.55;;;1.50;;
23001;SDS011;11667;51.706;4.856;2022-08-11T01:00:17;2.20;;;1.55;;
23001;SDS011;11667;51.706;4.856;2022-08-11T01:20:17;6.78;;;2.60;;
23001;SDS011;11667;51.706;4.856;2022-08-11T01:37:26;7.37;;;4.20;;
23001;SDS011;11667;51.706;4.856;2022-08-11T01:46:20;7.95;;;4.50;;
23001;SDS011;11667;51.706;4.856;2022-08-11T01:54:18;8.13;;;4.47;;
23001;SDS011;11667;51.706;4.856;2022-08-11T02:00:14;6.83;;;4.87;;
23001;SDS011;11667;51.706;4.856;2022-08-11T02:08:34;10.65;;;5.15;;
23001;SDS011;11667;51.706;4.856;2022-08-11T02:11:22;7.58;;;5.37;;
23001;SDS011;11667;51.706;4.856;2022-08-11T02:14:23;9.38;;;5.50;;
23001;SDS011;11667;51.706;4.856;2022-08-11T02:22:59;9.45;;;4.90;;
23001;SDS011;11667;51.706;4.856;2022-08-11T02:28:26;7.17;;;5.35;;
23001;SDS011;11667;51.706;4.856;2022-08-11T02:34:17;10.13;;;5.33;;
23001;SDS011;11667;51.706;4.856;2022-08-11T02:42:52;9.15;;;4.85;;
23001;SDS011;11667;51.706;4.856;2022-08-11T02:51:41;9.28;;;5.95;;
23001;SDS011;11667;51.706;4.856;2022-08-11T02:54:15;6.75;;;5.12;;
23001;SDS011;11667;51.706;4.856;2022-08-11T02:56:49;8.65;;;5.72;;
23001;SDS011;11667;51.706;4.856;2022-08-11T02:59:38;8.20;;;5.47;;
23001;SDS011;11667;51.706;4.856;2022-08-11T03:10:21;8.57;;;5.77;;
23001;SDS011;11667;51.706;4.856;2022-08-11T03:13:18;8.53;;;5.62;;
23001;SDS011;11667;51.706;4.856;2022-08-11T03:16:23;6.83;;;5.40;;
23001;SDS011;11667;51.706;4.856;2022-08-11T03:19:18;10.25;;;5.80;;
23001;SDS011;11667;51.706;4.856;2022-08-11T03:21:51;7.78;;;5.62;;
23001;SDS011;11667;51.706;4.856;2022-08-11T03:27:33;11.43;;;5.57;;
23001;SDS011;11667;51.706;4.856;2022-08-11T03:30:24;7.20;;;5.70;;
23001;SDS011;11667;51.706;4.856;2022-08-11T03:36:12;8.73;;;6.20;;
23001;SDS011;11667;51.706;4.856;2022-08-11T03:41:35;7.45;;;5.80;;
23001;SDS011;11667;51.706;4.856;2022-08-11T03:47:24;10.58;;;6.25;;
23001;SDS011;11667;51.706;4.856;2022-08-11T03:53:17;14.28;;;7.30;;
23001;SDS011;11667;51.706;4.856;2022-08-11T03:56:20;12.55;;;6.28;;
23001;SDS011;11667;51.706;4.856;2022-08-11T04:16:23;8.60;;;6.10;;
23001;SDS011;11667;51.706;4.856;2022-08-11T04:39:38;11.45;;;6.37;;
23001;SDS011;11667;51.706;4.856;2022-08-11T04:46:20;10.85;;;6.55;;
23001;SDS011;11667;51.706;4.856;2022-08-11T05:01:28;18.35;;;11.95;;
23001;SDS011;11667;51.706;4.856;2022-08-11T05:13:00;13.78;;;8.68;;
23001;SDS011;11667;51.706;4.856;2022-08-11T05:15:52;20.20;;;9.23;;
23001;SDS011;11667;51.706;4.856;2022-08-11T05:18:50;13.05;;;8.90;;
23001;SDS011;11667;51.706;4.856;2022-08-11T05:21:41;14.50;;;8.68;;
23001;SDS011;11667;51.706;4.856;2022-08-11T05:24:40;12.43;;;8.53;;
23001;SDS011;11667;51.706;4.856;2022-08-11T05:27:32;10.63;;;6.78;;
23001;SDS011;11667;51.706;4.856;2022-08-11T05:30:40;10.47;;;6.03;;
23001;SDS011;11667;51.706;4.856;2022-08-11T05:33:41;11.78;;;6.53;;
23001;SDS011;11667;51.706;4.856;2022-08-11T05:39:14;137.68;;;11.90;;
23001;SDS011;11667;51.706;4.856;2022-08-11T05:42:04;9.78;;;6.62;;
23001;SDS011;11667;51.706;4.856;2022-08-11T05:44:56;14.33;;;6.67;;
23001;SDS011;11667;51.706;4.856;2022-08-11T05:47:49;10.45;;;6.80;;
23001;SDS011;11667;51.706;4.856;2022-08-11T05:50:36;9.85;;;6.25;;
23001;SDS011;11667;51.706;4.856;2022-08-11T05:53:23;10.72;;;6.70;;
23001;SDS011;11667;51.706;4.856;2022-08-11T05:56:13;10.82;;;7.08;;
23001;SDS011;11667;51.706;4.856;2022-08-11T05:58:52;11.68;;;8.10;;
23001;SDS011;11667;51.706;4.856;2022-08-11T06:01:26;14.13;;;7.87;;
23001;SDS011;11667;51.706;4.856;2022-08-11T06:03:59;17.10;;;10.35;;
23001;SDS011;11667;51.706;4.856;2022-08-11T06:09:28;16.12;;;10.40;;
23001;SDS011;11667;51.706;4.856;2022-08-11T06:12:04;22.70;;;10.15;;
23001;SDS011;11667;51.706;4.856;2022-08-11T06:14:40;21.00;;;11.65;;
23001;SDS011;11667;51.706;4.856;2022-08-11T06:17:09;18.27;;;11.00;;
23001;SDS011;11667;51.706;4.856;2022-08-11T06:19:41;16.40;;;10.08;;
23001;SDS011;11667;51.706;4.856;2022-08-11T06:22:12;16.42;;;9.80;;
23001;SDS011;11667;51.706;4.856;2022-08-11T06:27:19;10.08;;;7.03;;
23001;SDS011;11667;51.706;4.856;2022-08-11T06:29:49;11.57;;;7.10;;
23001;SDS011;11667;51.706;4.856;2022-08-11T06:32:23;12.10;;;7.12;;
23001;SDS011;11667;51.706;4.856;2022-08-11T06:38:13;11.83;;;6.67;;
23001;SDS011;11667;51.706;4.856;2022-08-11T06:41:00;12.33;;;6.83;;
23001;SDS011;11667;51.706;4.856;2022-08-11T06:46:44;11.65;;;7.03;;
23001;SDS011;11667;51.706;4.856;2022-08-11T06:49:14;11.45;;;7.60;;
23001;SDS011;11667;51.706;4.856;2022-08-11T06:52:04;10.93;;;7.20;;
23001;SDS011;11667;51.706;4.856;2022-08-11T06:54:38;14.23;;;7.35;;
23001;SDS011;11667;51.706;4.856;2022-08-11T06:57:12;10.48;;;7.28;;
23001;SDS011;11667;51.706;4.856;2022-08-11T07:00:00;13.58;;;7.70;;
23001;SDS011;11667;51.706;4.856;2022-08-11T07:02:51;10.82;;;7.50;;
23001;SDS011;11667;51.706;4.856;2022-08-11T07:14:27;13.55;;;7.50;;
23001;SDS011;11667;51.706;4.856;2022-08-11T07:17:19;14.87;;;7.42;;
23001;SDS011;11667;51.706;4.856;2022-08-11T07:19:54;11.45;;;7.22;;
23001;SDS011;11667;51.706;4.856;2022-08-11T07:22:45;11.75;;;8.20;;
23001;SDS011;11667;51.706;4.856;2022-08-11T07:25:40;12.37;;;7.92;;
23001;SDS011;11667;51.706;4.856;2022-08-11T07:28:29;11.15;;;7.58;;
23001;SDS011;11667;51.706;4.856;2022-08-11T07:36:51;9.63;;;6.53;;
23001;SDS011;11667;51.706;4.856;2022-08-11T07:39:22;10.18;;;6.35;;
23001;SDS011;11667;51.706;4.856;2022-08-11T07:44:24;15.03;;;7.00;;
23001;SDS011;11667;51.706;4.856;2022-08-11T07:46:57;12.07;;;7.17;;
23001;SDS011;11667;51.706;4.856;2022-08-11T07:49:45;12.73;;;6.85;;
23001;SDS011;11667;51.706;4.856;2022-08-11T07:52:34;11.18;;;7.05;;
23001;SDS011;11667;51.706;4.856;2022-08-11T07:57:36;14.87;;;6.62;;
23001;SDS011;11667;51.706;4.856;2022-08-11T08:00:26;12.53;;;6.50;;
23001;SDS011;11667;51.706;4.856;2022-08-11T08:03:15;16.30;;;7.15;;
23001;SDS011;11667;51.706;4.856;2022-08-11T08:06:04;10.60;;;6.70;;
23001;SDS011;11667;51.706;4.856;2022-08-11T08:08:53;8.73;;;6.30;;
23001;SDS011;11667;51.706;4.856;2022-08-11T08:11:42;13.00;;;6.15;;
23001;SDS011;11667;51.706;4.856;2022-08-11T08:14:30;11.28;;;6.42;;
23001;SDS011;11667;51.706;4.856;2022-08-11T08:17:18;10.00;;;6.03;;
23001;SDS011;11667;51.706;4.856;2022-08-11T08:20:12;8.25;;;5.00;;
23001;SDS011;11667;51.706;4.856;2022-08-11T08:22:55;10.80;;;5.12;;
23001;SDS011;11667;51.706;4.856;2022-08-11T08:25:22;9.35;;;4.35;;
23001;SDS011;11667;51.706;4.856;2022-08-11T08:28:00;12.98;;;5.37;;
23001;SDS011;11667;51.706;4.856;2022-08-11T08:30:31;9.80;;;4.70;;
23001;SDS011;11667;51.706;4.856;2022-08-11T08:33:25;8.55;;;4.70;;
23001;SDS011;11667;51.706;4.856;2022-08-11T08:36:00;11.20;;;4.78;;
23001;SDS011;11667;51.706;4.856;2022-08-11T08:38:46;9.00;;;4.55;;
23001;SDS011;11667;51.706;4.856;2022-08-11T08:41:20;10.03;;;4.95;;
23001;SDS011;11667;51.706;4.856;2022-08-11T08:43:49;8.48;;;4.85;;
23001;SDS011;11667;51.706;4.856;2022-08-11T08:46:21;9.80;;;4.63;;
23001;SDS011;11667;51.706;4.856;2022-08-11T08:48:53;6.92;;;4.12;;
23001;SDS011;11667;51.706;4.856;2022-08-11T08:51:23;11.95;;;4.60;;
23001;SDS011;11667;51.706;4.856;2022-08-11T08:54:15;6.28;;;4.20;;
23001;SDS011;11667;51.706;4.856;2022-08-11T08:56:41;8.85;;;4.45;;
23001;SDS011;11667;51.706;4.856;2022-08-11T08:59:12;10.38;;;4.53;;
23001;SDS011;11667;51.706;4.856;2022-08-11T09:01:47;11.97;;;4.62;;
23001;SDS011;11667;51.706;4.856;2022-08-11T09:04:27;10.35;;;4.97;;
23001;SDS011;11667;51.706;4.856;2022-08-11T09:07:02;12.47;;;4.80;;
23001;SDS011;11667;51.706;4.856;2022-08-11T09:09:32;6.70;;;4.10;;
23001;SDS011;11667;51.706;4.856;2022-08-11T09:12:02;7.40;;;3.87;;
23001;SDS011;11667;51.706;4.856;2022-08-11T09:14:35;6.47;;;4.10;;
23001;SDS011;11667;51.706;4.856;2022-08-11T09:17:24;8.45;;;4.08;;
23001;SDS011;11667;51.706;4.856;2022-08-11T09:20:09;7.80;;;4.00;;
23001;SDS011;11667;51.706;4.856;2022-08-11T09:22:55;8.35;;;3.90;;
23001;SDS011;11667;51.706;4.856;2022-08-11T09:25:45;13.13;;;4.60;;
23001;SDS011;11667;51.706;4.856;2022-08-11T09:28:33;6.62;;;4.15;;
23001;SDS011;11667;51.706;4.856;2022-08-11T09:31:03;7.62;;;4.22;;
23001;SDS011;11667;51.706;4.856;2022-08-11T09:33:34;7.65;;;3.67;;
23001;SDS011;11667;51.706;4.856;2022-08-11T09:36:05;7.65;;;4.22;;
23001;SDS011;11667;51.706;4.856;2022-08-11T09:38:53;6.80;;;4.17;;
23001;SDS011;11667;51.706;4.856;2022-08-11T09:41:40;8.40;;;4.20;;
23001;SDS011;11667;51.706;4.856;2022-08-11T09:44:13;10.05;;;4.22;;
23001;SDS011;11667;51.706;4.856;2022-08-11T09:47:00;9.93;;;4.00;;
23001;SDS011;11667;51.706;4.856;2022-08-11T09:49:31;7.87;;;4.08;;
23001;SDS011;11667;51.706;4.856;2022-08-11T09:52:01;105.12;;;8.60;;
23001;SDS011;11667;51.706;4.856;2022-08-11T09:54:35;9.68;;;3.60;;
23001;SDS011;11667;51.706;4.856;2022-08-11T09:57:04;5.33;;;3.83;;
23001;SDS011;11667;51.706;4.856;2022-08-11T09:59:52;8.58;;;3.65;;
23001;SDS011;11667;51.706;4.856;2022-08-11T10:02:27;7.85;;;3.85;;
23001;SDS011;11667;51.706;4.856;2022-08-11T10:04:57;7.58;;;3.27;;
23001;SDS011;11667;51.706;4.856;2022-08-11T10:09:58;5.37;;;3.02;;
23001;SDS011;11667;51.706;4.856;2022-08-11T10:12:33;5.28;;;3.30;;
23001;SDS011;11667;51.706;4.856;2022-08-11T10:15:08;7.75;;;3.27;;
23001;SDS011;11667;51.706;4.856;2022-08-11T10:17:57;6.72;;;2.92;;
23001;SDS011;11667;51.706;4.856;2022-08-11T10:20:50;9.30;;;3.60;;
23001;SDS011;11667;51.706;4.856;2022-08-11T10:23:21;5.72;;;2.92;;
23001;SDS011;11667;51.706;4.856;2022-08-11T10:26:11;7.75;;;2.80;;
23001;SDS011;11667;51.706;4.856;2022-08-11T10:29:00;7.03;;;3.72;;
23001;SDS011;11667;51.706;4.856;2022-08-11T10:31:34;5.28;;;3.12;;
23001;SDS011;11667;51.706;4.856;2022-08-11T10:34:22;5.78;;;3.20;;
23001;SDS011;11667;51.706;4.856;2022-08-11T10:39:22;5.15;;;2.77;;
23001;SDS011;11667;51.706;4.856;2022-08-11T10:41:53;6.40;;;3.20;;
23001;SDS011;11667;51.706;4.856;2022-08-11T10:44:44;4.83;;;2.75;;
23001;SDS011;11667;51.706;4.856;2022-08-11T10:47:15;5.85;;;3.50;;
23001;SDS011;11667;51.706;4.856;2022-08-11T10:50:07;3.10;;;2.80;;
23001;SDS011;11667;51.706;4.856;2022-08-11T10:52:56;4.12;;;2.60;;
23001;SDS011;11667;51.706;4.856;2022-08-11T10:55:44;5.22;;;2.95;;
23001;SDS011;11667;51.706;4.856;2022-08-11T10:58:32;6.50;;;2.80;;
23001;SDS011;11667;51.706;4.856;2022-08-11T11:01:29;4.47;;;2.70;;
23001;SDS011;11667;51.706;4.856;2022-08-11T11:09:29;6.05;;;3.12;;
23001;SDS011;11667;51.706;4.856;2022-08-11T11:12:48;7.80;;;2.90;;
23001;SDS011;11667;51.706;4.856;2022-08-11T11:14:49;6.03;;;2.77;;
23001;SDS011;11667;51.706;4.856;2022-08-11T11:17:42;7.17;;;2.80;;
23001;SDS011;11667;51.706;4.856;2022-08-11T11:20:25;3.02;;;2.70;;
23001;SDS011;11667;51.706;4.856;2022-08-11T11:31:27;4.75;;;2.98;;
23001;SDS011;11667;51.706;4.856;2022-08-11T11:36:50;6.05;;;2.90;;
23001;SDS011;11667;51.706;4.856;2022-08-11T11:39:22;8.45;;;3.02;;
23001;SDS011;11667;51.706;4.856;2022-08-11T11:42:01;6.08;;;2.85;;
23001;SDS011;11667;51.706;4.856;2022-08-11T11:44:31;6.85;;;3.00;;
23001;SDS011;11667;51.706;4.856;2022-08-11T11:47:02;3.55;;;3.10;;
23001;SDS011;11667;51.706;4.856;2022-08-11T11:49:31;5.03;;;2.90;;
23001;SDS011;11667;51.706;4.856;2022-08-11T11:52:03;5.47;;;2.87;;
23001;SDS011;11667;51.706;4.856;2022-08-11T11:54:34;3.45;;;2.98;;
23001;SDS011;11667;51.706;4.856;2022-08-11T11:57:03;6.60;;;3.10;;
23001;SDS011;11667;51.706;4.856;2022-08-11T11:59:37;5.67;;;3.15;;
23001;SDS011;11667;51.706;4.856;2022-08-11T12:02:24;4.20;;;3.22;;
23001;SDS011;11667;51.706;4.856;2022-08-11T12:04:54;4.90;;;3.10;;
23001;SDS011;11667;51.706;4.856;2022-08-11T12:07:24;4.10;;;3.05;;
23001;SDS011;11667;51.706;4.856;2022-08-11T12:10:13;4.40;;;3.25;;
23001;SDS011;11667;51.706;4.856;2022-08-11T12:12:44;5.95;;;3.27;;
23001;SDS011;11667;51.706;4.856;2022-08-11T12:15:31;7.12;;;3.00;;
23001;SDS011;11667;51.706;4.856;2022-08-11T12:18:03;5.08;;;3.00;;
23001;SDS011;11667;51.706;4.856;2022-08-11T12:20:33;4.90;;;3.15;;
23001;SDS011;11667;51.706;4.856;2022-08-11T12:23:02;8.20;;;3.00;;
23001;SDS011;11667;51.706;4.856;2022-08-11T12:25:50;5.92;;;3.20;;
23001;SDS011;11667;51.706;4.856;2022-08-11T12:28:39;7.58;;;2.98;;
23001;SDS011;11667;51.706;4.856;2022-08-11T12:31:09;4.10;;;2.80;;
23001;SDS011;11667;51.706;4.856;2022-08-11T12:33:38;4.58;;;2.85;;
23001;SDS011;11667;51.706;4.856;2022-08-11T12:36:11;3.90;;;2.90;;
23001;SDS011;11667;51.706;4.856;2022-08-11T12:38:43;4.08;;;2.90;;
23001;SDS011;11667;51.706;4.856;2022-08-11T12:41:16;6.47;;;3.15;;
23001;SDS011;11667;51.706;4.856;2022-08-11T12:44:04;4.92;;;2.70;;
23001;SDS011;11667;51.706;4.856;2022-08-11T12:46:51;5.00;;;2.70;;
23001;SDS011;11667;51.706;4.856;2022-08-11T12:49:22;4.60;;;2.80;;
23001;SDS011;11667;51.706;4.856;2022-08-11T12:52:13;6.87;;;2.98;;
23001;SDS011;11667;51.706;4.856;2022-08-11T12:57:27;5.08;;;2.95;;
23001;SDS011;11667;51.706;4.856;2022-08-11T13:00:18;4.35;;;2.62;;
23001;SDS011;11667;51.706;4.856;2022-08-11T13:03:06;3.60;;;2.90;;
23001;SDS011;11667;51.706;4.856;2022-08-11T13:05:55;4.25;;;2.70;;
23001;SDS011;11667;51.706;4.856;2022-08-11T13:08:27;4.75;;;2.92;;
23001;SDS011;11667;51.706;4.856;2022-08-11T13:10:58;5.67;;;3.40;;
23001;SDS011;11667;51.706;4.856;2022-08-11T13:13:46;6.33;;;2.50;;
23001;SDS011;11667;51.706;4.856;2022-08-11T13:16:18;3.75;;;3.00;;
23001;SDS011;11667;51.706;4.856;2022-08-11T13:18:51;5.67;;;3.22;;
23001;SDS011;11667;51.706;4.856;2022-08-11T13:21:20;4.97;;;3.30;;
23001;SDS011;11667;51.706;4.856;2022-08-11T13:23:51;13.95;;;3.00;;
23001;SDS011;11667;51.706;4.856;2022-08-11T13:26:23;9.08;;;3.50;;
23001;SDS011;11667;51.706;4.856;2022-08-11T13:28:55;4.55;;;3.20;;
23001;SDS011;11667;51.706;4.856;2022-08-11T13:31:24;3.90;;;2.90;;
23001;SDS011;11667;51.706;4.856;2022-08-11T13:33:53;6.60;;;3.15;;
23001;SDS011;11667;51.706;4.856;2022-08-11T13:36:23;3.87;;;2.90;;
23001;SDS011;11667;51.706;4.856;2022-08-11T13:38:54;3.50;;;3.20;;
23001;SDS011;11667;51.706;4.856;2022-08-11T13:44:09;4.10;;;2.95;;
23001;SDS011;11667;51.706;4.856;2022-08-11T13:46:44;4.85;;;3.12;;
23001;SDS011;11667;51.706;4.856;2022-08-11T13:49:16;10.18;;;3.12;;
23001;SDS011;11667;51.706;4.856;2022-08-11T13:51:45;4.62;;;3.42;;
23001;SDS011;11667;51.706;4.856;2022-08-11T13:54:16;4.35;;;2.95;;
23001;SDS011;11667;51.706;4.856;2022-08-11T13:56:47;5.22;;;3.30;;
23001;SDS011;11667;51.706;4.856;2022-08-11T13:59:19;3.60;;;3.20;;
23001;SDS011;11667;51.706;4.856;2022-08-11T14:01:57;5.55;;;3.20;;
23001;SDS011;11667;51.706;4.856;2022-08-11T14:04:42;4.22;;;3.20;;
23001;SDS011;11667;51.706;4.856;2022-08-11T14:07:18;6.28;;;3.00;;
23001;SDS011;11667;51.706;4.856;2022-08-11T14:09:54;4.58;;;3.00;;
23001;SDS011;11667;51.706;4.856;2022-08-11T14:12:28;5.25;;;3.10;;
23001;SDS011;11667;51.706;4.856;2022-08-11T14:15:22;4.67;;;2.95;;
23001;SDS011;11667;51.706;4.856;2022-08-11T14:17:56;4.10;;;2.72;;
23001;SDS011;11667;51.706;4.856;2022-08-11T14:20:35;6.83;;;3.22;;
23001;SDS011;11667;51.706;4.856;2022-08-11T14:23:31;5.03;;;3.10;;
23001;SDS011;11667;51.706;4.856;2022-08-11T14:26:08;7.08;;;3.77;;
23001;SDS011;11667;51.706;4.856;2022-08-11T14:28:54;6.53;;;3.30;;
23001;SDS011;11667;51.706;4.856;2022-08-11T14:31:29;5.47;;;3.30;;
23001;SDS011;11667;51.706;4.856;2022-08-11T14:34:01;5.62;;;3.17;;
23001;SDS011;11667;51.706;4.856;2022-08-11T14:39:09;4.85;;;2.90;;
23001;SDS011;11667;51.706;4.856;2022-08-11T14:41:40;4.70;;;3.12;;
23001;SDS011;11667;51.706;4.856;2022-08-11T14:44:31;5.72;;;3.20;;
23001;SDS011;11667;51.706;4.856;2022-08-11T14:47:21;4.72;;;3.05;;
23001;SDS011;11667;51.706;4.856;2022-08-11T14:49:53;4.47;;;3.10;;
23001;SDS011;11667;51.706;4.856;2022-08-11T14:52:25;4.60;;;3.00;;
23001;SDS011;11667;51.706;4.856;2022-08-11T14:54:54;3.37;;;3.00;;
23001;SDS011;11667;51.706;4.856;2022-08-11T14:57:42;5.75;;;3.22;;
23001;SDS011;11667;51.706;4.856;2022-08-11T15:00:13;6.33;;;3.22;;
23001;SDS011;11667;51.706;4.856;2022-08-11T15:02:45;4.83;;;3.00;;
23001;SDS011;11667;51.706;4.856;2022-08-11T15:05:40;5.90;;;3.60;;
23001;SDS011;11667;51.706;4.856;2022-08-11T15:08:13;3.72;;;3.00;;
23001;SDS011;11667;51.706;4.856;2022-08-11T15:10:43;4.28;;;3.20;;
23001;SDS011;11667;51.706;4.856;2022-08-11T15:13:18;7.12;;;2.95;;
23001;SDS011;11667;51.706;4.856;2022-08-11T15:15:47;6.60;;;3.42;;
23001;SDS011;11667;51.706;4.856;2022-08-11T15:18:35;6.10;;;3.45;;
23001;SDS011;11667;51.706;4.856;2022-08-11T15:21:05;7.72;;;3.20;;
23001;SDS011;11667;51.706;4.856;2022-08-11T15:23:52;6.20;;;3.75;;
23001;SDS011;11667;51.706;4.856;2022-08-11T15:26:40;5.62;;;3.27;;
23001;SDS011;11667;51.706;4.856;2022-08-11T15:29:28;4.05;;;2.90;;
23001;SDS011;11667;51.706;4.856;2022-08-11T15:32:16;6.12;;;2.90;;
23001;SDS011;11667;51.706;4.856;2022-08-11T15:34:58;6.25;;;3.20;;
23001;SDS011;11667;51.706;4.856;2022-08-11T15:37:46;5.35;;;3.00;;
23001;SDS011;11667;51.706;4.856;2022-08-11T15:40:27;6.58;;;2.87;;
23001;SDS011;11667;51.706;4.856;2022-08-11T15:43:15;5.00;;;3.30;;
23001;SDS011;11667;51.706;4.856;2022-08-11T15:46:10;6.58;;;3.17;;
23001;SDS011;11667;51.706;4.856;2022-08-11T15:48:42;4.92;;;3.20;;
23001;SDS011;11667;51.706;4.856;2022-08-11T15:51:17;3.90;;;3.25;;
23001;SDS011;11667;51.706;4.856;2022-08-11T15:53:52;3.75;;;2.95;;
23001;SDS011;11667;51.706;4.856;2022-08-11T15:56:25;5.28;;;3.02;;
23001;SDS011;11667;51.706;4.856;2022-08-11T15:58:56;4.70;;;3.08;;
23001;SDS011;11667;51.706;4.856;2022-08-11T16:01:46;6.12;;;3.27;;
23001;SDS011;11667;51.706;4.856;2022-08-11T16:04:35;4.42;;;3.00;;
23001;SDS011;11667;51.706;4.856;2022-08-11T16:07:09;5.83;;;3.20;;
23001;SDS011;11667;51.706;4.856;2022-08-11T16:09:49;5.80;;;3.25;;
23001;SDS011;11667;51.706;4.856;2022-08-11T16:12:28;4.30;;;3.10;;
23001;SDS011;11667;51.706;4.856;2022-08-11T16:15:00;3.52;;;2.90;;
23001;SDS011;11667;51.706;4.856;2022-08-11T16:17:55;7.15;;;3.25;;
23001;SDS011;11667;51.706;4.856;2022-08-11T16:20:25;4.30;;;3.05;;
23001;SDS011;11667;51.706;4.856;2022-08-11T16:23:02;6.27;;;4.03;;
23001;SDS011;11667;51.706;4.856;2022-08-11T16:25:32;3.72;;;3.00;;
23001;SDS011;11667;51.706;4.856;2022-08-11T16:28:05;4.42;;;3.50;;
23001;SDS011;11667;51.706;4.856;2022-08-11T16:30:38;6.90;;;3.05;;
23001;SDS011;11667;51.706;4.856;2022-08-11T16:33:08;5.25;;;2.87;;
23001;SDS011;11667;51.706;4.856;2022-08-11T16:35:39;3.75;;;2.92;;
23001;SDS011;11667;51.706;4.856;2022-08-11T16:38:26;6.95;;;2.90;;
23001;SDS011;11667;51.706;4.856;2022-08-11T16:41:04;6.75;;;3.00;;
23001;SDS011;11667;51.706;4.856;2022-08-11T16:43:45;5.72;;;2.90;;
23001;SDS011;11667;51.706;4.856;2022-08-11T16:46:30;4.28;;;2.83;;
23001;SDS011;11667;51.706;4.856;2022-08-11T16:49:21;5.83;;;3.20;;
23001;SDS011;11667;51.706;4.856;2022-08-11T16:51:57;3.85;;;2.80;;
23001;SDS011;11667;51.706;4.856;2022-08-11T16:54:29;3.02;;;2.55;;
23001;SDS011;11667;51.706;4.856;2022-08-11T16:57:09;4.62;;;2.65;;
23001;SDS011;11667;51.706;4.856;2022-08-11T16:59:53;7.25;;;3.20;;
23001;SDS011;11667;51.706;4.856;2022-08-11T17:02:25;7.22;;;3.08;;
23001;SDS011;11667;51.706;4.856;2022-08-11T17:05:16;5.75;;;2.72;;
23001;SDS011;11667;51.706;4.856;2022-08-11T17:08:07;6.42;;;2.90;;
23001;SDS011;11667;51.706;4.856;2022-08-11T17:10:59;4.08;;;2.92;;
23001;SDS011;11667;51.706;4.856;2022-08-11T17:14:00;5.97;;;3.20;;
23001;SDS011;11667;51.706;4.856;2022-08-11T17:16:35;7.47;;;3.35;;
23001;SDS011;11667;51.706;4.856;2022-08-11T17:19:10;6.40;;;4.03;;
23001;SDS011;11667;51.706;4.856;2022-08-11T17:21:43;7.25;;;4.20;;
23001;SDS011;11667;51.706;4.856;2022-08-11T17:24:36;6.67;;;3.20;;
23001;SDS011;11667;51.706;4.856;2022-08-11T17:27:07;6.95;;;3.72;;
23001;SDS011;11667;51.706;4.856;2022-08-11T17:29:40;6.95;;;3.45;;
23001;SDS011;11667;51.706;4.856;2022-08-11T17:32:23;7.62;;;3.27;;
23001;SDS011;11667;51.706;4.856;2022-08-11T17:35:15;6.33;;;3.00;;
23001;SDS011;11667;51.706;4.856;2022-08-11T17:38:07;6.85;;;3.83;;
23001;SDS011;11667;51.706;4.856;2022-08-11T17:40:47;8.43;;;3.10;;
23001;SDS011;11667;51.706;4.856;2022-08-11T17:43:33;3.77;;;2.67;;
23001;SDS011;11667;51.706;4.856;2022-08-11T17:46:20;4.20;;;2.92;;
23001;SDS011;11667;51.706;4.856;2022-08-11T17:49:07;8.30;;;4.35;;
23001;SDS011;11667;51.706;4.856;2022-08-11T17:51:39;5.17;;;2.90;;
23001;SDS011;11667;51.706;4.856;2022-08-11T17:54:28;8.20;;;3.37;;
23001;SDS011;11667;51.706;4.856;2022-08-11T17:57:17;5.80;;;2.40;;
23001;SDS011;11667;51.706;4.856;2022-08-11T18:00:05;3.45;;;2.80;;
23001;SDS011;11667;51.706;4.856;2022-08-11T18:02:44;5.65;;;2.92;;
23001;SDS011;11667;51.706;4.856;2022-08-11T18:05:35;8.05;;;3.00;;
23001;SDS011;11667;51.706;4.856;2022-08-11T18:08:05;5.42;;;2.83;;
23001;SDS011;11667;51.706;4.856;2022-08-11T18:10:54;4.30;;;2.65;;
23001;SDS011;11667;51.706;4.856;2022-08-11T18:13:44;5.50;;;3.08;;
23001;SDS011;11667;51.706;4.856;2022-08-11T18:16:31;4.58;;;2.92;;
23001;SDS011;11667;51.706;4.856;2022-08-11T18:19:19;6.97;;;3.10;;
23001;SDS011;11667;51.706;4.856;2022-08-11T18:22:11;4.42;;;2.98;;
23001;SDS011;11667;51.706;4.856;2022-08-11T18:25:00;10.43;;;3.00;;
23001;SDS011;11667;51.706;4.856;2022-08-11T18:27:48;5.37;;;2.77;;
23001;SDS011;11667;51.706;4.856;2022-08-11T18:30:38;7.20;;;3.10;;
23001;SDS011;11667;51.706;4.856;2022-08-11T18:33:36;9.20;;;3.27;;
23001;SDS011;11667;51.706;4.856;2022-08-11T18:36:23;8.20;;;3.17;;
23001;SDS011;11667;51.706;4.856;2022-08-11T18:39:12;4.40;;;3.10;;
23001;SDS011;11667;51.706;4.856;2022-08-11T18:42:01;4.00;;;2.98;;
23001;SDS011;11667;51.706;4.856;2022-08-11T18:44:52;7.22;;;3.40;;
23001;SDS011;11667;51.706;4.856;2022-08-11T18:47:39;7.28;;;3.40;;
23001;SDS011;11667;51.706;4.856;2022-08-11T18:50:28;5.58;;;3.12;;
23001;SDS011;11667;51.706;4.856;2022-08-11T18:53:17;6.53;;;3.40;;
23001;SDS011;11667;51.706;4.856;2022-08-11T18:56:05;5.95;;;3.58;;
23001;SDS011;11667;51.706;4.856;2022-08-11T18:58:52;7.67;;;3.15;;
23001;SDS011;11667;51.706;4.856;2022-08-11T19:01:41;12.30;;;3.55;;
23001;SDS011;11667;51.706;4.856;2022-08-11T19:04:28;8.45;;;3.40;;
23001;SDS011;11667;51.706;4.856;2022-08-11T19:07:16;4.85;;;3.50;;
23001;SDS011;11667;51.706;4.856;2022-08-11T19:10:04;6.17;;;5.03;;
23001;SDS011;11667;51.706;4.856;2022-08-11T19:12:52;4.67;;;3.77;;
23001;SDS011;11667;51.706;4.856;2022-08-11T19:15:39;8.50;;;3.72;;
23001;SDS011;11667;51.706;4.856;2022-08-11T19:18:29;4.80;;;3.50;;
23001;SDS011;11667;51.706;4.856;2022-08-11T19:21:21;8.78;;;3.92;;
23001;SDS011;11667;51.706;4.856;2022-08-11T19:24:08;5.80;;;3.70;;
23001;SDS011;11667;51.706;4.856;2022-08-11T19:26:57;7.40;;;3.67;;
23001;SDS011;11667;51.706;4.856;2022-08-11T19:29:45;4.47;;;3.85;;
23001;SDS011;11667;51.706;4.856;2022-08-11T19:32:34;6.35;;;3.83;;
23001;SDS011;11667;51.706;4.856;2022-08-11T19:35:22;5.00;;;3.92;;
23001;SDS011;11667;51.706;4.856;2022-08-11T19:38:10;4.17;;;3.72;;
23001;SDS011;11667;51.706;4.856;2022-08-11T19:40:58;6.58;;;3.87;;
23001;SDS011;11667;51.706;4.856;2022-08-11T19:43:47;6.25;;;3.85;;
23001;SDS011;11667;51.706;4.856;2022-08-11T19:46:36;8.20;;;4.20;;
23001;SDS011;11667;51.706;4.856;2022-08-11T19:49:26;10.80;;;4.45;;
23001;SDS011;11667;51.706;4.856;2022-08-11T19:52:14;6.75;;;4.70;;
23001;SDS011;11667;51.706;4.856;2022-08-11T19:55:01;8.63;;;4.70;;
23001;SDS011;11667;51.706;4.856;2022-08-11T19:57:49;5.97;;;5.05;;
23001;SDS011;11667;51.706;4.856;2022-08-11T20:00:37;11.45;;;5.25;;
23001;SDS011;11667;51.706;4.856;2022-08-11T20:03:26;8.50;;;5.30;;
23001;SDS011;11667;51.706;4.856;2022-08-11T20:06:13;9.35;;;5.42;;
23001;SDS011;11667;51.706;4.856;2022-08-11T20:09:03;7.72;;;5.00;;